Česky Dansk Deutsch English Español Suomi Français Magyar Italiano Nederlands norsk Polski Português svenska Türkçe

 

Het Weer

Seretse Khama International Airport (Botswana)

08:00, 19 augustus 2016 (GMT)

 
WE
 
Home            
Seretse Khama International Airport Jwaneng Mafikeng Intl. Ad Ellisras Rustenburg Lichtenburg Lanseria Wonderboom / Pretoria Pretoria Waterkloof (SAAF) Potchefstroom Pretoria Irene Klerksdorp Rand Selebi Phikwe Letlhakane Johannesburg International Airport Vryburg Vereeniging Springs Pietersburg Pietersburg Civil Francistown

Om een weerknop op uw website of weblog te plaatsen, copieer onderstaande code en plak die in uw pagina. In het eerste vakje staat HTML-code, in het tweede vakje UBB-code.


Add to Google

Details

Wind speed:3 bf, 9 kn, 4.6 m/s, 10.4 miles/h, 16.7 km/h
Wind direction:NE, 050°
Visibility:Greater than 10000 m, 10 km, 32800 ft, 6.2 miles
Clouds:CAVOC
Temperature:19°C, 66°F
Dew-point:8°C, 46°F
Atmospheric pressure:1024 hPa, 768.1 mmHg, 30.24 inHg, 1.011 atm
Relative humidity:48.8 %
METAR:FBSK 190800Z 05009KT CAVOK 19/08 Q1024 NOSIG

Snelkoppelingen

Actuele weersinformatie van de hele wereld. Voeg locaties toe met het plus (+) symbool. Deze snelkoppelingen kunnen worden toegevoegd aan Google.

Lid van de Technetium groep

website free tracking
StatCounter NetStat W3C Validator

22-02-2018 01:53:09
astro.technetium.be money.technetium.be phote.technetium.be tafeltennistafel.technetium.be www.ligfiets.net